Time;durP1;ratioP1;P1;durP2;ratioP2;P2;SDS_P1;SDS_P2;PMS_P1;PMS_P2;Temp;Humidity;BMP_temperature;BMP_pressure;BME280_temperature;BME280_humidity;BME280_pressure;Samples;Min_cycle;Max_cycle;Signal;HPM_P1;HPM_P2
2023/01/24 00:00:50;;;;;;;9.80;7.68;;;17.00;71.70;;;17.76;40.40;100490.34;5090354;28;20048;-82
2023/01/24 00:03:20;;;;;;;11.13;8.10;;;17.00;71.80;;;17.80;40.53;100485.94;5096573;28;20032;-83
2023/01/24 00:05:47;;;;;;;10.32;7.82;;;17.00;71.80;;;17.78;40.87;100488.94;5056966;28;20432;-83
2023/01/24 00:08:15;;;;;;;10.30;8.25;;;17.00;71.70;;;17.83;40.52;100490.88;5077271;28;20107;-83
2023/01/24 00:10:41;;;;;;;9.93;7.95;;;17.00;71.50;;;17.80;40.68;100485.94;5079472;28;20109;-84
2023/01/24 00:13:10;;;;;;;8.48;7.38;;;17.00;71.70;;;17.77;40.51;100492.78;5079245;28;20036;-83
2023/01/24 00:15:36;;;;;;;11.00;8.57;;;17.00;71.50;;;17.75;40.48;100488.69;5092197;28;20465;-83
2023/01/24 00:18:02;;;;;;;11.00;7.38;;;17.00;71.60;;;17.80;40.54;100483.19;5089808;28;20040;-83
2023/01/24 00:20:28;;;;;;;9.10;7.07;;;17.00;71.70;;;17.76;40.74;100482.91;5061972;28;20095;-83
2023/01/24 00:22:54;;;;;;;9.90;7.47;;;17.00;71.60;;;17.76;40.69;100484.84;5097634;28;20062;-83
2023/01/24 00:25:20;;;;;;;9.85;8.05;;;17.00;71.60;;;17.75;40.54;100488.69;5112206;28;20039;-83
2023/01/24 00:27:46;;;;;;;9.15;7.32;;;17.00;71.70;;;17.77;40.63;100486.47;5094808;28;20050;-83
2023/01/24 00:30:12;;;;;;;11.10;7.60;;;17.00;71.60;;;17.78;40.72;100493.59;5096430;28;20027;-83
2023/01/24 00:32:38;;;;;;;10.63;7.68;;;17.10;71.70;;;17.76;40.70;100491.16;5090980;28;20044;-83
2023/01/24 00:35:05;;;;;;;7.75;6.55;;;17.00;71.70;;;17.76;40.54;100491.16;5080844;28;20069;-83
2023/01/24 00:37:31;;;;;;;12.05;8.88;;;17.00;71.60;;;17.77;40.56;100491.97;5064855;28;20073;-83
2023/01/24 00:39:58;;;;;;;8.48;7.22;;;17.00;71.70;;;17.74;40.58;100489.78;5096883;28;20493;-82
2023/01/24 00:42:24;;;;;;;10.20;7.78;;;17.00;71.80;;;17.73;40.87;100497.22;5077472;28;20035;-82
2023/01/24 00:44:50;;;;;;;12.07;8.68;;;16.90;71.70;;;17.75;40.69;100496.91;5092884;28;20048;-83
2023/01/24 00:47:16;;;;;;;11.68;8.48;;;16.90;71.80;;;17.78;40.59;100493.59;5090359;28;20057;-83
2023/01/24 00:49:42;;;;;;;12.52;8.88;;;16.90;71.80;;;17.77;40.94;100494.72;5108808;28;20043;-83
2023/01/24 00:52:08;;;;;;;11.70;7.53;;;16.90;72.10;;;17.76;40.58;100491.16;5108070;28;20600;-82
2023/01/24 00:54:34;;;;;;;13.60;8.13;;;16.90;71.60;;;17.74;40.60;100495.28;5109330;28;20036;-82
2023/01/24 00:57:00;;;;;;;10.00;7.97;;;17.00;71.60;;;17.72;40.50;100501.03;5104550;28;20104;-83
2023/01/24 00:59:26;;;;;;;9.75;7.35;;;17.00;71.50;;;17.75;40.63;100500.47;5107950;28;20040;-82
2023/01/24 01:01:52;;;;;;;10.48;7.65;;;17.00;71.50;;;17.71;40.62;100498.59;5077618;28;20054;-82
2023/01/24 01:04:19;;;;;;;10.48;8.00;;;17.00;71.60;;;17.75;40.42;100505.13;5076395;28;20055;-83
2023/01/24 01:06:48;;;;;;;9.07;6.82;;;17.00;71.70;;;17.71;40.57;100493.09;5110233;28;20427;-82
2023/01/24 01:09:14;;;;;;;10.98;7.75;;;16.90;71.60;;;17.74;40.71;100498.03;5094830;27;20670;-83
2023/01/24 01:11:41;;;;;;;11.45;8.55;;;16.90;71.70;;;17.71;40.57;100498.59;5096409;27;20096;-82
2023/01/24 01:14:08;;;;;;;8.43;7.15;;;16.90;71.50;;;17.66;40.80;100502.16;5077428;27;20060;-82
2023/01/24 01:16:37;;;;;;;9.23;7.35;;;16.90;71.70;;;17.73;40.64;100501.84;5076308;27;20054;-83
2023/01/24 01:19:04;;;;;;;10.10;7.32;;;16.90;71.70;;;17.73;40.48;100505.44;5079249;27;20076;-83
2023/01/24 01:21:30;;;;;;;10.82;8.00;;;17.00;71.80;;;17.71;40.84;100504.88;5076934;27;20042;-83
2023/01/24 01:23:56;;;;;;;11.73;7.63;;;16.90;71.60;;;17.72;40.59;100505.72;5079731;27;20096;-83
2023/01/24 01:26:22;;;;;;;8.55;6.97;;;16.90;71.60;;;17.72;40.65;100508.44;5062665;27;20111;-83
2023/01/24 01:28:48;;;;;;;8.50;7.45;;;16.90;71.50;;;17.71;40.45;100509.56;5077936;27;20042;-82
2023/01/24 01:31:15;;;;;;;12.32;7.50;;;16.90;71.60;;;17.70;40.55;100502.41;5095216;27;20039;-82
2023/01/24 01:33:42;;;;;;;10.77;8.05;;;16.90;71.60;;;17.73;40.42;100508.19;5079020;27;20698;-82
2023/01/24 01:36:09;;;;;;;7.95;6.65;;;16.90;71.50;;;17.68;40.61;100510.09;5092446;27;20187;-83
2023/01/24 01:38:35;;;;;;;8.85;7.15;;;16.90;71.50;;;17.73;40.61;100512.81;5092096;27;20043;-82
2023/01/24 01:41:01;;;;;;;8.02;7.20;;;16.90;71.60;;;17.69;40.70;100503.53;5097044;27;20531;-83
2023/01/24 01:43:29;;;;;;;10.90;7.10;;;16.90;71.60;;;17.72;40.64;100513.94;5100527;27;20091;-83
2023/01/24 01:46:18;;;;;;;10.15;7.63;;;16.90;71.60;;;17.67;40.60;100516.69;5065469;27;20039;-83
2023/01/24 01:48:49;;;;;;;8.77;7.05;;;16.90;71.60;;;17.72;40.67;100509.28;5102313;27;20035;-83
2023/01/24 01:51:30;;;;;;;11.35;7.13;;;16.90;71.70;;;17.71;40.56;100504.88;5075179;27;20459;-83
2023/01/24 01:54:02;;;;;;;9.65;7.57;;;16.90;71.60;;;17.68;40.94;100508.19;5098579;27;20043;-83
2023/01/24 01:56:46;;;;;;;10.57;7.90;;;16.90;71.60;;;17.70;40.46;100508.72;5098815;27;20387;-83
2023/01/24 01:59:19;;;;;;;9.80;7.47;;;16.90;71.60;;;17.69;40.63;100507.09;5097476;27;20035;-83
2023/01/24 02:01:45;;;;;;;9.55;7.97;;;16.80;71.70;;;17.73;40.20;100513.69;5109085;27;20383;-83
2023/01/24 02:04:22;;;;;;;8.73;7.30;;;16.80;72.50;;;17.65;40.75;100518.91;5081191;27;20045;-83
2023/01/24 02:06:59;;;;;;;11.55;7.75;;;16.90;71.60;;;17.66;40.82;100512.31;5079527;27;20046;-83
2023/01/24 02:09:29;;;;;;;7.38;6.10;;;16.90;71.60;;;17.68;40.56;100512.84;5090630;27;20046;-82
2023/01/24 02:11:57;;;;;;;11.57;7.28;;;16.90;71.30;;;17.65;40.69;100511.47;5110354;27;20031;-83
2023/01/24 02:17:09;;;;;;;10.80;7.32;;;16.90;71.70;;;17.65;40.66;100506.00;5097916;27;20031;-83
2023/01/24 02:19:41;;;;;;;9.13;6.85;;;16.80;71.60;;;17.70;40.72;100510.66;5075696;27;20088;-83
2023/01/24 02:22:23;;;;;;;9.13;7.82;;;16.80;71.60;;;17.71;40.72;100506.81;5130877;27;20047;-83
2023/01/24 02:25:00;;;;;;;8.93;6.38;;;16.90;71.50;;;17.71;40.66;100502.16;5098367;27;20683;-83
2023/01/24 02:27:27;;;;;;;8.70;7.78;;;16.90;71.50;;;17.75;40.68;100507.88;5083318;27;20035;-84
2023/01/24 02:29:55;;;;;;;8.23;7.15;;;17.00;71.50;;;17.76;40.55;100512.28;5096208;27;20041;-83
2023/01/24 02:32:21;;;;;;;8.73;7.07;;;17.00;71.50;;;17.80;40.36;100507.91;5114525;27;20121;-83
2023/01/24 02:34:47;;;;;;;8.10;7.25;;;17.00;71.50;;;17.78;40.54;100510.06;5079849;27;20046;-83
2023/01/24 02:37:14;;;;;;;10.45;7.85;;;17.00;71.40;;;17.83;40.48;100506.53;5077583;27;20036;-83
2023/01/24 02:39:53;;;;;;;8.32;6.60;;;17.00;71.40;;;17.86;40.20;100503.19;5061181;27;20507;-84
2023/01/24 02:42:23;;;;;;;7.53;6.35;;;17.00;71.50;;;17.89;40.33;100500.75;5089906;27;20468;-83
2023/01/24 02:45:05;;;;;;;9.02;6.47;;;17.10;71.50;;;17.92;40.16;100505.66;5078309;27;20071;-83
2023/01/24 02:47:35;;;;;;;11.30;7.30;;;17.10;71.30;;;17.96;40.14;100501.25;5114739;27;20127;-83
2023/01/24 02:50:01;;;;;;;10.35;7.15;;;17.10;71.20;;;17.95;40.12;100507.03;5079345;28;20631;-83
2023/01/24 02:55:12;;;;;;;10.48;8.02;;;17.20;71.10;;;18.00;40.03;100507.81;5114309;27;20033;-83
2023/01/24 03:00:24;;;;;;;9.38;7.78;;;17.20;71.90;;;17.97;40.10;100508.38;5097703;27;20046;-83
2023/01/24 03:02:50;;;;;;;9.25;7.03;;;17.20;71.00;;;18.00;39.98;100507.81;5078695;28;20482;-83
2023/01/24 03:05:16;;;;;;;11.15;7.72;;;17.20;71.10;;;17.99;40.29;100508.94;5062233;28;20063;-83
2023/01/24 03:07:44;;;;;;;9.05;7.05;;;17.20;71.00;;;18.05;39.82;100515.22;5075179;28;20039;-84
2023/01/24 03:10:15;;;;;;;9.30;6.63;;;17.20;71.00;;;18.07;40.08;100514.94;5080179;28;20079;-83
2023/01/24 03:34:49;;;;;;;8.32;6.00;;;17.50;71.00;;;18.32;39.89;100525.81;5088686;28;20047;-83
2023/01/24 03:37:16;;;;;;;11.73;7.32;;;17.50;70.80;;;18.32;39.85;100524.94;5080679;28;20043;-83
2023/01/24 03:40:16;;;;;;;8.15;6.32;;;17.50;70.90;;;18.32;39.97;100522.22;5077674;28;20047;-83
2023/01/24 03:42:47;;;;;;;11.18;6.93;;;17.60;71.00;;;18.39;39.48;100526.31;5098629;28;20764;-83
2023/01/24 03:45:28;;;;;;;8.43;6.80;;;17.60;70.80;;;18.41;39.85;100524.09;5081646;28;20440;-83
2023/01/24 03:47:56;;;;;;;9.02;6.55;;;17.60;70.80;;;18.43;39.85;100527.38;5080138;28;20064;-83
2023/01/24 03:53:12;;;;;;;7.85;7.00;;;17.70;70.70;;;18.49;39.61;100528.16;5084966;28;20035;-83
2023/01/24 03:55:38;;;;;;;9.57;7.22;;;17.70;70.70;;;18.52;39.78;100527.63;5074245;28;20130;-83
2023/01/24 03:58:05;;;;;;;9.10;6.18;;;17.70;70.80;;;18.53;39.70;100526.50;5079305;28;20114;-82
2023/01/24 04:00:31;;;;;;;8.05;6.05;;;17.70;70.70;;;18.56;39.60;100527.84;5095725;28;20043;-83
2023/01/24 04:02:58;;;;;;;7.38;6.63;;;17.80;70.70;;;18.58;39.91;100523.72;5095831;28;20042;-82
2023/01/24 04:05:24;;;;;;;9.85;6.93;;;17.80;70.80;;;18.56;39.66;100514.94;5095985;28;20543;-83
2023/01/24 04:07:50;;;;;;;7.88;5.82;;;17.70;70.70;;;18.61;39.55;100511.31;5078322;28;20043;-83
2023/01/24 04:10:16;;;;;;;9.15;6.68;;;17.70;70.80;;;18.62;39.68;100510.22;5097986;28;20039;-83
2023/01/24 04:12:43;;;;;;;7.82;5.93;;;17.80;70.80;;;18.63;39.67;100509.94;5078055;27;20035;-83
2023/01/24 04:15:33;;;;;;;7.18;6.47;;;17.80;70.80;;;18.65;39.76;100510.47;5099314;27;20039;-83
2023/01/24 04:18:01;;;;;;;7.43;6.43;;;17.80;70.70;;;18.65;39.75;100513.22;5103405;27;20108;-83
2023/01/24 04:20:29;;;;;;;7.78;5.93;;;17.80;70.90;;;18.68;39.58;100506.34;5096999;27;20043;-83
2023/01/24 04:22:56;;;;;;;8.00;6.63;;;17.80;70.80;;;18.71;39.70;100508.50;5065251;27;20107;-83
2023/01/24 04:25:22;;;;;;;7.85;6.75;;;17.90;70.80;;;18.72;39.74;100509.31;5081057;27;20039;-83
2023/01/24 04:27:48;;;;;;;6.80;5.80;;;17.90;70.80;;;18.73;39.76;100510.97;5096639;27;20126;-83
2023/01/24 04:30:15;;;;;;;9.95;6.57;;;17.90;70.60;;;18.74;39.86;100513.44;5082476;27;20035;-83
2023/01/24 04:32:41;;;;;;;7.82;6.53;;;17.90;70.90;;;18.76;39.75;100507.69;5080749;27;20609;-83
2023/01/24 04:35:09;;;;;;;8.88;6.22;;;17.90;70.80;;;18.77;39.79;100510.13;5082320;27;20478;-83
2023/01/24 04:37:36;;;;;;;7.93;6.65;;;17.90;70.70;;;18.75;39.55;100511.50;5101152;27;20043;-83
2023/01/24 04:40:02;;;;;;;8.10;7.15;;;17.90;70.80;;;18.75;39.82;100506.88;5098545;27;20051;-83
2023/01/24 04:42:28;;;;;;;7.15;6.35;;;18.00;70.90;;;18.81;39.61;100513.97;5095792;27;20039;-83
2023/01/24 04:44:54;;;;;;;7.53;6.57;;;17.90;70.80;;;18.80;39.57;100515.09;5065252;27;20045;-83
2023/01/24 04:47:20;;;;;;;7.93;6.40;;;18.00;71.00;;;18.79;39.59;100518.09;5065371;27;20095;-83
2023/01/24 04:49:46;;;;;;;7.38;6.18;;;18.00;71.00;;;18.84;39.84;100520.81;5080998;27;20400;-83
2023/01/24 04:52:13;;;;;;;8.20;6.72;;;18.00;71.00;;;18.82;39.94;100523.03;5081414;27;20040;-83
2023/01/24 04:54:39;;;;;;;8.23;6.30;;;17.90;71.00;;;18.80;39.84;100525.22;5098492;27;20043;-83
2023/01/24 04:57:06;;;;;;;8.95;6.00;;;18.00;71.20;;;18.79;39.79;100524.41;5080682;27;20035;-83
2023/01/24 04:59:32;;;;;;;7.03;6.32;;;17.90;71.20;;;18.84;39.95;100518.06;5112397;27;20050;-83
2023/01/24 05:01:59;;;;;;;8.30;5.68;;;18.00;71.30;;;18.81;39.79;100522.22;5096603;27;20043;-83
2023/01/24 05:04:25;;;;;;;8.57;6.05;;;17.90;71.20;;;18.81;39.70;100522.22;5082465;27;20039;-83
2023/01/24 05:06:51;;;;;;;8.20;6.05;;;18.00;71.20;;;18.84;39.89;100531.81;5084315;27;20114;-83
2023/01/24 05:09:17;;;;;;;9.82;6.60;;;18.00;71.20;;;18.83;39.75;100525.50;5114925;27;20486;-83
2023/01/24 05:11:43;;;;;;;7.18;5.15;;;18.00;71.10;;;18.82;39.92;100537.59;5067448;27;20039;-82
2023/01/24 05:14:10;;;;;;;7.43;6.18;;;18.00;71.10;;;18.84;39.90;100529.06;5116520;27;20068;-83
2023/01/24 05:16:36;;;;;;;8.35;6.03;;;18.00;71.20;;;18.83;40.14;100536.50;5106873;27;20039;-83
2023/01/24 05:19:03;;;;;;;8.43;6.13;;;18.00;71.20;;;18.84;39.86;100529.88;5083807;27;20040;-83
2023/01/24 05:21:29;;;;;;;7.28;5.53;;;18.00;71.10;;;18.86;39.75;100535.09;5077698;27;20051;-83
2023/01/24 05:23:55;;;;;;;7.25;5.68;;;18.00;71.10;;;18.86;39.92;100530.41;5077013;27;20046;-83
2023/01/24 05:26:24;;;;;;;7.80;6.15;;;18.10;71.10;;;18.85;39.83;100537.03;5099193;27;20104;-83
2023/01/24 05:28:50;;;;;;;6.68;4.88;;;18.10;71.10;;;18.85;39.79;100538.94;5081273;27;20051;-83
2023/01/24 05:31:17;;;;;;;7.55;4.72;;;18.00;71.10;;;18.86;40.03;100535.09;5081071;27;20039;-83
2023/01/24 05:33:43;;;;;;;7.63;6.80;;;18.00;71.30;;;18.84;39.96;100540.88;5065361;27;20093;-83
2023/01/24 05:36:18;;;;;;;6.78;5.70;;;18.00;71.30;;;18.86;39.85;100546.09;5100483;27;20032;-82
2023/01/24 05:38:44;;;;;;;6.53;5.53;;;18.00;71.20;;;18.86;39.81;100535.91;5098067;27;20040;-83
2023/01/24 05:41:12;;;;;;;6.15;5.53;;;18.00;71.30;;;18.85;39.94;100539.78;5098085;27;20787;-83
2023/01/24 05:43:39;;;;;;;7.50;5.65;;;18.00;71.40;;;18.86;39.96;100540.59;5115563;27;20043;-83
2023/01/24 05:46:06;;;;;;;6.28;5.65;;;18.00;71.40;;;18.86;39.85;100540.59;5066582;27;20088;-83
2023/01/24 05:48:32;;;;;;;5.82;5.00;;;18.00;71.30;;;18.85;40.18;100542.53;5097040;27;20474;-83
2023/01/24 05:51:00;;;;;;;8.60;6.38;;;18.00;71.40;;;18.87;39.78;100539.47;5075172;27;20039;-83
2023/01/24 05:53:30;;;;;;;6.68;5.45;;;18.00;71.30;;;18.88;39.89;100538.38;5091526;27;20062;-83
2023/01/24 05:56:01;;;;;;;6.25;5.25;;;18.00;71.60;;;18.86;39.96;100541.41;5075412;27;20039;-83
2023/01/24 05:58:29;;;;;;;7.13;5.55;;;18.00;71.50;;;18.86;39.85;100544.16;5059768;27;20027;-82
2023/01/24 06:00:55;;;;;;;7.65;5.88;;;18.00;71.60;;;18.88;39.87;100543.88;5078607;27;20042;-83
2023/01/24 06:03:21;;;;;;;7.57;5.78;;;18.00;71.50;;;18.87;39.90;100544.97;5096877;27;20045;-82
2023/01/24 06:05:49;;;;;;;6.85;5.47;;;18.00;71.30;;;18.85;39.95;100550.78;5096846;27;20410;-83
2023/01/24 06:08:15;;;;;;;8.05;6.10;;;18.00;71.40;;;18.86;40.01;100549.66;5077541;27;20039;-83
2023/01/24 06:10:41;;;;;;;7.88;6.18;;;18.00;71.40;;;18.88;39.94;100560.38;5096633;27;20073;-83
2023/01/24 06:13:07;;;;;;;6.90;5.35;;;18.00;71.40;;;18.82;39.91;100551.31;5099027;27;20035;-83
2023/01/24 06:15:33;;;;;;;7.30;5.63;;;18.00;71.40;;;18.87;40.08;100554.03;5079778;27;20043;-83
2023/01/24 06:17:59;;;;;;;7.55;5.43;;;18.00;71.60;;;18.87;39.69;100559.53;5079710;27;20045;-83
2023/01/24 06:20:26;;;;;;;6.78;5.85;;;18.00;71.70;;;18.86;40.16;100563.41;5094382;27;20039;-83
2023/01/24 06:22:55;;;;;;;7.22;5.53;;;18.00;71.70;;;18.84;39.99;100571.13;5093919;27;20107;-83
2023/01/24 06:25:24;;;;;;;7.63;5.45;;;18.00;71.60;;;18.85;40.17;100561.78;5094236;27;20036;-83
2023/01/24 06:27:50;;;;;;;6.50;5.90;;;18.00;71.60;;;18.84;39.85;100573.88;5114787;27;20118;-83
2023/01/24 06:30:18;;;;;;;8.32;5.82;;;17.90;71.60;;;18.87;39.90;100576.03;5113037;27;20031;-83
2023/01/24 06:33:09;;;;;;;7.45;5.55;;;17.90;71.60;;;18.84;39.99;100573.88;5082010;27;20043;-84
2023/01/24 06:36:03;;;;;;;7.07;5.53;;;18.00;71.80;;;18.83;40.24;100566.75;5092487;27;20043;-84
2023/01/24 06:38:29;;;;;;;5.75;5.07;;;17.90;71.60;;;18.85;40.06;100577.44;5114273;27;20047;-83
2023/01/24 06:40:57;;;;;;;5.03;4.43;;;17.90;71.60;;;18.84;40.30;100578.56;5078475;27;20051;-83
2023/01/24 06:43:24;;;;;;;8.07;5.82;;;18.00;71.80;;;18.85;39.87;100589.28;5097911;27;20042;-83
2023/01/24 06:45:50;;;;;;;7.47;5.25;;;18.00;71.80;;;18.87;40.02;100584.28;5063655;27;20043;-83
2023/01/24 06:48:16;;;;;;;6.28;5.22;;;17.90;71.60;;;18.84;39.95;100592.28;5078764;27;20050;-83
2023/01/24 06:50:42;;;;;;;5.28;4.57;;;18.00;71.80;;;18.87;39.91;100584.28;5083393;27;20125;-82
2023/01/24 06:53:09;;;;;;;7.93;5.32;;;18.00;71.60;;;18.84;39.88;100593.13;5114161;27;20072;-83
2023/01/24 06:55:35;;;;;;;6.22;5.20;;;18.00;71.70;;;18.85;40.35;100600.28;5077309;27;20039;-83
2023/01/24 06:58:02;;;;;;;5.75;4.95;;;17.90;71.60;;;18.84;40.11;100597.78;5077632;27;20049;-83
2023/01/24 07:00:29;;;;;;;6.20;5.22;;;18.00;71.70;;;18.84;40.16;100601.34;5061176;27;20047;-83
2023/01/24 07:03:08;;;;;;;6.68;5.07;;;18.00;71.70;;;18.83;39.97;100604.41;5093051;28;20058;-83
2023/01/24 07:05:36;;;;;;;6.82;5.35;;;17.90;71.60;;;18.80;40.06;100604.97;5093403;28;20051;-83
2023/01/24 07:08:03;;;;;;;6.65;4.72;;;17.90;71.80;;;18.83;40.13;100607.97;5080574;28;20506;-83
2023/01/24 07:10:29;;;;;;;6.63;5.13;;;17.90;71.90;;;18.81;40.01;100609.38;5079394;28;20526;-83
2023/01/24 07:12:55;;;;;;;6.40;5.63;;;17.90;71.90;;;18.81;40.12;100615.69;5093441;28;20027;-83
2023/01/24 07:15:22;;;;;;;6.57;5.43;;;17.80;71.80;;;18.82;40.12;100611.81;5061158;28;20041;-82
2023/01/24 07:17:48;;;;;;;9.13;6.13;;;17.90;71.80;;;18.80;40.05;100614.06;5092102;28;20409;-83
2023/01/24 07:20:15;;;;;;;7.57;5.93;;;17.90;71.80;;;18.82;40.01;100611.81;5061057;28;20031;-83
2023/01/24 07:22:42;;;;;;;6.03;4.95;;;17.90;71.90;;;18.82;40.11;100609.06;5079972;28;20486;-83
2023/01/24 07:25:15;;;;;;;5.00;4.45;;;17.90;71.90;;;18.82;40.04;100613.75;5098136;28;20092;-83
2023/01/24 07:27:43;;;;;;;5.72;4.95;;;17.90;71.90;;;18.82;40.18;100614.56;5097385;28;20456;-83
2023/01/24 07:30:11;;;;;;;6.70;5.28;;;17.90;71.80;;;18.83;40.17;100618.16;5095449;28;20057;-83
2023/01/24 07:32:37;;;;;;;6.03;4.88;;;17.90;71.70;;;18.83;40.06;100618.16;5079691;28;20126;-83
2023/01/24 07:35:04;;;;;;;5.55;4.97;;;17.90;71.80;;;18.82;40.12;100622.81;5078367;28;20035;-83
2023/01/24 07:37:30;;;;;;;5.05;4.55;;;17.80;71.80;;;18.82;40.00;100628.31;5066282;28;20122;-82
2023/01/24 07:39:56;;;;;;;7.22;5.47;;;17.90;71.80;;;18.79;40.15;100622.56;5099577;28;20121;-82
2023/01/24 07:42:22;;;;;;;6.05;4.85;;;17.80;71.70;;;18.82;40.07;100633.00;5065666;28;20103;-83
2023/01/24 07:44:48;;;;;;;4.82;4.32;;;17.80;71.80;;;18.80;40.08;100636.03;5095840;28;20039;-83
2023/01/24 07:47:14;;;;;;;4.95;4.45;;;17.90;72.00;;;18.82;40.14;100639.31;5096687;27;20031;-83
2023/01/24 07:49:41;;;;;;;6.35;5.47;;;17.90;71.90;;;18.84;40.03;100639.03;5062270;27;20082;-83
2023/01/24 07:52:07;;;;;;;5.57;4.85;;;17.80;72.00;;;18.84;40.05;100644.53;5100744;27;20039;-83
2023/01/24 07:54:33;;;;;;;7.93;5.10;;;17.90;71.90;;;18.85;40.06;100640.66;5080438;27;20092;-83
2023/01/24 07:57:00;;;;;;;6.05;4.70;;;17.90;71.90;;;18.82;40.13;100635.75;5100035;27;20482;-83
2023/01/24 07:59:26;;;;;;;5.85;5.10;;;17.80;71.70;;;18.82;39.97;100638.50;5101600;27;20039;-83
2023/01/24 08:01:52;;;;;;;6.60;5.07;;;17.90;71.80;;;18.83;40.05;100649.22;5093649;27;20477;-82
2023/01/24 08:04:18;;;;;;;7.53;5.00;;;17.80;71.90;;;18.86;39.95;100643.16;5096740;27;20041;-82
2023/01/24 08:09:30;;;;;;;7.03;5.40;;;17.80;71.90;;;18.83;39.93;100645.66;5103737;27;20055;-83
2023/01/24 08:11:56;;;;;;;20.25;5.22;;;17.90;71.90;;;18.83;40.07;100648.41;5095796;27;20130;-82
2023/01/24 08:14:22;;;;;;;6.88;4.85;;;17.80;71.80;;;18.81;39.98;100643.19;5099785;27;20031;-83
2023/01/24 08:16:49;;;;;;;5.82;5.10;;;17.80;71.90;;;18.82;40.23;100650.31;5076767;27;20039;-82
2023/01/24 08:19:16;;;;;;;10.70;6.18;;;17.80;72.00;;;18.84;39.98;100652.78;5076716;27;20047;-82
2023/01/24 08:21:42;;;;;;;7.65;6.20;;;17.80;72.00;;;18.80;40.03;100649.78;5095664;27;20041;-83
2023/01/24 08:24:08;;;;;;;7.95;5.43;;;17.80;72.00;;;18.82;39.91;100664.06;5081949;27;20039;-82
2023/01/24 08:26:34;;;;;;;9.82;5.72;;;17.80;72.00;;;18.81;40.20;100658.84;5078556;27;20036;-83
2023/01/24 08:29:01;;;;;;;8.20;6.15;;;17.70;72.10;;;18.84;40.05;100661.03;5094912;27;20035;-83
2023/01/24 08:31:27;;;;;;;7.38;5.05;;;17.80;72.00;;;18.80;39.86;100662.69;5076910;27;20035;-83
2023/01/24 08:33:53;;;;;;;8.98;5.65;;;17.80;72.00;;;18.81;39.98;100670.66;5081032;27;20563;-83
2023/01/24 08:36:20;;;;;;;8.50;6.72;;;17.80;72.00;;;18.81;40.10;100665.16;5074831;27;20035;-83
2023/01/24 08:38:48;;;;;;;10.65;5.93;;;17.80;72.00;;;18.81;39.92;100667.91;5095393;27;20035;-83
2023/01/24 08:41:14;;;;;;;10.32;6.18;;;17.80;72.00;;;18.81;39.95;100664.34;5095363;27;20035;-83
2023/01/24 08:43:42;;;;;;;10.45;6.63;;;17.70;72.00;;;18.81;40.05;100665.16;5077061;27;20072;-83
2023/01/24 08:46:08;;;;;;;14.18;6.60;;;17.80;72.20;;;18.81;40.08;100670.66;5112866;27;20046;-83
2023/01/24 08:48:34;;;;;;;8.50;5.95;;;17.80;72.90;;;18.80;40.05;100680.03;5093127;27;20047;-83
2023/01/24 08:51:03;;;;;;;11.75;7.07;;;17.80;72.20;;;18.79;39.93;100672.88;5074385;27;20048;-82
2023/01/24 08:53:29;;;;;;;11.98;6.82;;;17.80;72.00;;;18.78;40.14;100668.50;5078075;27;20041;-83
2023/01/24 08:55:55;;;;;;;16.48;7.35;;;17.80;72.00;;;18.79;39.99;100683.88;5109220;27;20059;-83
2023/01/24 08:58:21;;;;;;;15.55;7.88;;;17.80;72.00;;;18.78;40.50;100673.19;5095042;27;20032;-82
2023/01/24 09:00:48;;;;;;;13.88;8.02;;;17.80;72.30;;;18.80;40.33;100674.53;5090492;27;20164;-83
2023/01/24 09:03:16;;;;;;;21.98;7.82;;;17.80;72.40;;;18.79;40.06;100672.06;5095415;27;20820;-83
2023/01/24 09:05:42;;;;;;;15.38;8.52;;;17.80;72.30;;;18.80;40.13;100673.69;5071888;27;20043;-83
2023/01/24 09:08:09;;;;;;;11.65;7.55;;;17.80;72.20;;;18.75;40.23;100670.94;5094720;27;20041;-83
2023/01/24 09:10:35;;;;;;;16.38;8.38;;;17.80;72.30;;;18.77;40.08;100669.56;5062096;27;20059;-82
2023/01/24 09:13:05;;;;;;;19.17;8.48;;;17.70;72.20;;;18.80;40.04;100669.03;5061852;27;20512;-82
2023/01/24 09:15:31;;;;;;;16.17;7.65;;;17.80;72.30;;;18.81;40.19;100667.91;5079396;27;20043;-82
2023/01/24 09:18:12;;;;;;;16.10;8.95;;;17.80;72.30;;;18.81;40.13;100673.41;5102608;27;20046;-82
2023/01/24 09:20:40;;;;;;;15.43;8.23;;;17.80;72.30;;;18.77;40.20;100680.56;5094256;27;20043;-82
2023/01/24 09:23:11;;;;;;;16.23;8.35;;;17.80;72.30;;;18.80;40.13;100676.44;5094323;27;20095;-82
2023/01/24 09:25:38;;;;;;;;;;;17.80;72.30;;;18.77;40.10;100680.56;5080902;27;20045;-82
2023/01/24 09:28:04;;;;;;;17.85;8.77;;;17.80;72.20;;;18.77;40.26;100675.06;5094409;27;20596;-82
2023/01/24 09:30:30;;;;;;;15.27;8.27;;;17.80;72.20;;;18.76;40.14;100678.13;5098304;27;20051;-83
2023/01/24 09:32:56;;;;;;;18.98;8.85;;;17.80;72.00;;;18.76;40.20;100675.38;5065938;27;20019;-83
2023/01/24 09:35:23;;;;;;;19.80;8.13;;;17.80;72.00;;;18.74;40.09;100675.63;5082113;27;20500;-83
2023/01/24 09:37:51;;;;;;;16.75;7.90;;;17.80;72.00;;;18.76;40.15;100672.63;5094635;27;20031;-83
2023/01/24 09:40:22;;;;;;;16.13;7.95;;;17.80;72.20;;;18.74;40.14;100670.13;5089649;27;20049;-83
2023/01/24 09:43:03;;;;;;;16.67;8.77;;;17.80;72.10;;;18.75;39.99;100679.19;5094178;27;20571;-83
2023/01/24 09:46:16;;;;;;;20.50;9.32;;;17.80;72.10;;;18.75;40.02;100673.69;5110263;27;20047;-82
2023/01/24 09:48:42;;;;;;;16.55;8.32;;;17.80;72.00;;;18.70;40.16;100669.06;5048056;27;20051;-83
2023/01/24 09:51:24;;;;;;;16.15;8.43;;;17.70;72.00;;;18.71;40.17;100669.88;5076852;27;20759;-83
2023/01/24 09:53:53;;;;;;;16.48;9.10;;;17.70;72.00;;;18.70;40.38;100671.81;5065980;27;20054;-83
2023/01/24 09:56:41;;;;;;;16.08;7.88;;;17.80;72.10;;;18.73;40.28;100662.16;5096443;27;20437;-83
2023/01/24 09:59:23;;;;;;;14.30;8.48;;;17.70;71.90;;;18.71;40.05;100670.69;5094961;27;20039;-82
2023/01/24 10:01:51;;;;;;;17.38;8.43;;;17.70;71.90;;;18.72;40.17;100661.31;5097923;27;20039;-82
2023/01/24 10:04:19;;;;;;;23.00;9.60;;;17.70;72.20;;;18.71;40.07;100661.63;5098094;27;20122;-83
2023/01/24 10:07:26;;;;;;;13.70;7.47;;;17.70;71.90;;;18.73;40.18;100668.47;5126946;27;20042;-83
2023/01/24 10:10:17;;;;;;;18.90;8.15;;;17.70;71.90;;;18.72;40.10;100668.75;5122257;27;20100;-83
2023/01/24 10:13:09;;;;;;;13.68;9.10;;;17.70;72.00;;;18.70;40.04;100669.06;5098635;27;20038;-82
2023/01/24 10:16:09;;;;;;;14.23;8.55;;;17.80;72.00;;;18.71;40.18;100670.69;5127872;27;20039;-82
2023/01/24 10:19:19;;;;;;;13.73;8.25;;;17.70;71.90;;;18.68;40.10;100660.25;5131213;27;20091;-82
2023/01/24 10:21:45;;;;;;;15.55;8.30;;;17.70;72.00;;;18.69;40.01;100667.41;5108788;27;20039;-83
2023/01/24 10:24:17;;;;;;;13.02;8.85;;;17.70;71.90;;;18.73;39.97;100664.91;5132485;27;20035;-83
2023/01/24 10:26:50;;;;;;;11.13;7.30;;;17.70;71.80;;;18.72;40.16;100666.00;5096262;27;20045;-83
2023/01/24 10:29:21;;;;;;;17.83;8.18;;;17.70;71.90;;;18.68;40.05;100663.00;5095174;27;20039;-83
2023/01/24 10:32:04;;;;;;;23.85;9.07;;;17.70;72.00;;;18.68;40.04;100665.75;5112227;27;20039;-83
2023/01/24 10:34:42;;;;;;;20.52;10.63;;;17.70;71.90;;;18.68;40.28;100663.00;5076763;27;20104;-83
2023/01/24 10:37:25;;;;;;;19.77;8.77;;;17.80;72.00;;;18.69;40.03;100663.81;5097792;27;20118;-83
2023/01/24 10:39:52;;;;;;;16.83;9.30;;;17.70;71.90;;;18.68;40.12;100663.00;5110719;28;20508;-83
2023/01/24 10:42:25;;;;;;;16.85;9.55;;;17.70;71.80;;;18.66;40.18;100662.47;5062469;27;20043;-82
2023/01/24 10:44:53;;;;;;;15.88;8.20;;;17.70;71.70;;;18.70;40.03;100662.72;5106027;27;20131;-83
2023/01/24 10:47:39;;;;;;;16.30;8.38;;;17.70;72.00;;;18.69;40.12;100659.16;5081812;27;20077;-82
2023/01/24 10:50:11;;;;;;;15.07;8.15;;;17.70;71.90;;;18.68;39.96;100654.75;5098706;27;20035;-82
2023/01/24 10:52:38;;;;;;;20.20;8.35;;;17.70;71.90;;;18.68;40.07;100656.69;5080332;28;20071;-83
2023/01/24 10:55:34;;;;;;;18.70;8.82;;;17.70;71.90;;;18.69;40.05;100661.91;5081343;28;20137;-83